TAF KMCE
KMCE 072320Z 0800/0824 VRB03KT 4SM HZ OVC015 FM080800 11002KT 1SM BR SKC FM080900 VRB03KT 1/2SM FG OVC005 FM081900 15005KT 2SM BR OVC003 FM082000 15005KT 4SM HZ OVC050=
METAR KMCE
WC KMCE
WS KMCE
WV KMCE